Time;durP1;ratioP1;P1;durP2;ratioP2;P2;SDS_P1;SDS_P2;PMS_P1;PMS_P2;Temp;Humidity;BMP_temperature;BMP_pressure;BME280_temperature;BME280_humidity;BME280_pressure;Samples;Min_cycle;Max_cycle;Signal;HPM_P1;HPM_P2
2023/09/03 00:01:35;;;;;;;1999.90;999.90;;;18.30;99.90;;;;;;5048925;28;20423;-66
2023/09/03 00:04:02;;;;;;;1999.90;999.90;;;18.50;99.90;;;;;;5054422;28;20509;-66
2023/09/03 00:06:29;;;;;;;1999.90;999.90;;;18.50;99.90;;;;;;5043600;28;20502;-66
2023/09/03 00:08:56;;;;;;;1999.90;999.90;;;18.40;99.90;;;;;;5043201;28;20505;-66
2023/09/03 00:11:23;;;;;;;1999.90;999.90;;;18.30;99.90;;;;;;5043993;28;20434;-66
2023/09/03 00:13:51;;;;;;;1999.90;999.90;;;18.20;99.90;;;;;;5046913;28;20425;-66
2023/09/03 00:16:18;;;;;;;1999.90;999.90;;;18.20;99.90;;;;;;5048502;28;20804;-66
2023/09/03 00:18:44;;;;;;;1999.90;999.90;;;18.10;99.90;;;;;;5052742;28;20427;-66
2023/09/03 00:21:11;;;;;;;1999.90;999.90;;;18.30;99.90;;;;;;5046896;28;20424;-66
2023/09/03 00:23:38;;;;;;;1999.90;999.90;;;18.10;99.90;;;;;;5048148;28;20428;-66
2023/09/03 00:26:05;;;;;;;1999.90;999.90;;;18.10;99.90;;;;;;5049941;28;20425;-66
2023/09/03 00:28:31;;;;;;;1999.90;999.90;;;18.10;99.90;;;;;;5052312;28;20427;-65
2023/09/03 00:31:03;;;;;;;1999.90;999.90;;;18.10;99.90;;;;;;5047447;28;20436;-65
2023/09/03 00:33:30;;;;;;;1999.90;999.90;;;18.10;99.90;;;;;;5050705;28;20422;-66
2023/09/03 00:35:57;;;;;;;1999.90;999.90;;;18.10;99.90;;;;;;5056903;28;20433;-66
2023/09/03 00:38:24;;;;;;;1999.90;999.90;;;18.00;99.90;;;;;;5048627;28;20433;-66
2023/09/03 00:40:51;;;;;;;1999.90;999.90;;;18.20;99.90;;;;;;5047422;28;20425;-66
2023/09/03 00:43:18;;;;;;;1999.90;999.90;;;18.30;99.90;;;;;;5050355;28;20424;-66
2023/09/03 00:45:46;;;;;;;1999.90;999.90;;;18.10;99.90;;;;;;5060480;28;20482;-66
2023/09/03 00:48:17;;;;;;;1999.90;999.90;;;18.00;99.90;;;;;;5058484;28;20425;-66
2023/09/03 00:50:46;;;;;;;1999.90;999.90;;;18.10;99.90;;;;;;5055557;28;20429;-66
2023/09/03 00:53:14;;;;;;;1999.90;999.90;;;18.00;99.90;;;;;;5053060;28;20445;-66
2023/09/03 00:55:41;;;;;;;1999.90;999.90;;;18.10;99.90;;;;;;5056648;28;20427;-66
2023/09/03 00:58:08;;;;;;;1999.90;999.90;;;18.10;99.90;;;;;;5059299;28;20459;-66
2023/09/03 01:00:36;;;;;;;1999.90;999.90;;;18.10;99.90;;;;;;5055116;28;20823;-66
2023/09/03 01:03:04;;;;;;;1999.90;999.90;;;18.10;99.90;;;;;;5054835;28;20482;-66
2023/09/03 01:05:32;;;;;;;1999.90;999.90;;;18.10;99.90;;;;;;5051758;28;20930;-66
2023/09/03 01:08:00;;;;;;;1999.90;999.90;;;18.00;99.90;;;;;;5049718;28;20440;-66
2023/09/03 01:10:38;;;;;;;1999.90;999.90;;;18.00;99.90;;;;;;5052407;28;20537;-66
2023/09/03 01:13:15;;;;;;;1999.90;999.90;;;18.10;99.90;;;;;;5060058;28;20444;-66
2023/09/03 01:15:47;;;;;;;1999.90;999.90;;;18.10;99.90;;;;;;5050819;28;20437;-66
2023/09/03 01:18:19;;;;;;;1999.90;999.90;;;18.00;99.90;;;;;;5057035;28;20429;-66
2023/09/03 01:21:01;;;;;;;1999.90;999.90;;;17.80;99.90;;;;;;5051350;28;20440;-66
2023/09/03 01:23:38;;;;;;;1999.90;999.90;;;17.80;99.90;;;;;;5055008;28;20433;-65
2023/09/03 01:26:31;;;;;;;1999.90;999.90;;;17.80;99.90;;;;;;5056416;28;20433;-66
2023/09/03 01:28:59;;;;;;;1999.90;999.90;;;17.70;99.90;;;;;;5048211;28;20502;-66
2023/09/03 01:31:27;;;;;;;1999.90;999.90;;;17.70;99.90;;;;;;5050540;28;20514;-66
2023/09/03 01:34:01;;;;;;;1999.90;999.90;;;17.70;99.90;;;;;;5052465;28;20429;-66
2023/09/03 01:36:29;;;;;;;1999.90;999.90;;;17.70;99.90;;;;;;5057721;28;20427;-66
2023/09/03 01:38:58;;;;;;;1999.90;999.90;;;17.90;99.90;;;;;;5048694;28;20440;-66
2023/09/03 01:41:25;;;;;;;1999.90;999.90;;;17.60;99.90;;;;;;5053058;28;20440;-66
2023/09/03 01:43:52;;;;;;;1999.90;999.90;;;17.70;99.90;;;;;;5062652;28;20421;-66
2023/09/03 01:46:25;;;;;;;1999.90;999.90;;;17.80;99.90;;;;;;5058006;28;20468;-66
2023/09/03 01:49:03;;;;;;;1999.90;999.90;;;17.70;99.90;;;;;;5050605;28;20429;-66
2023/09/03 01:51:37;;;;;;;1999.90;999.90;;;17.60;99.90;;;;;;5052695;28;20423;-66
2023/09/03 01:54:12;;;;;;;1999.90;999.90;;;17.70;99.90;;;;;;5055367;28;20429;-66
2023/09/03 01:56:43;;;;;;;1999.90;999.90;;;17.70;99.90;;;;;;5056296;28;20440;-66
2023/09/03 01:59:18;;;;;;;1999.90;999.90;;;17.80;99.90;;;;;;5051987;28;20486;-66
2023/09/03 02:01:47;;;;;;;1999.90;999.90;;;17.80;99.90;;;;;;5041450;28;20827;-66
2023/09/03 02:04:14;;;;;;;1999.90;999.90;;;17.70;99.90;;;;;;5052899;28;20466;-66
2023/09/03 02:06:45;;;;;;;1999.90;999.90;;;17.60;99.90;;;;;;5056981;28;20437;-66
2023/09/03 02:09:12;;;;;;;1999.90;999.90;;;17.60;99.90;;;;;;5048088;28;20433;-66
2023/09/03 02:11:39;;;;;;;1999.90;999.90;;;17.50;99.90;;;;;;5047013;28;20429;-65
2023/09/03 02:14:05;;;;;;;1999.90;999.90;;;17.50;99.90;;;;;;5050120;28;20437;-67
2023/09/03 02:16:32;;;;;;;1999.90;999.90;;;17.50;99.90;;;;;;5048012;28;20452;-66
2023/09/03 02:19:00;;;;;;;1999.90;999.90;;;17.50;99.90;;;;;;5069805;22;20445;-74
2023/09/03 02:21:27;;;;;;;1999.90;999.90;;;17.50;99.90;;;;;;5057410;28;20428;-74
2023/09/03 02:23:54;;;;;;;1999.90;999.90;;;17.40;99.90;;;;;;5050293;28;20429;-71
2023/09/03 02:26:20;;;;;;;1999.90;999.90;;;17.40;99.90;;;;;;5049594;28;20495;-74
2023/09/03 02:28:47;;;;;;;1999.90;999.90;;;17.30;99.90;;;;;;5043857;28;20494;-74
2023/09/03 02:31:14;;;;;;;1999.90;999.90;;;17.40;99.90;;;;;;5041770;28;20955;-69
2023/09/03 02:33:40;;;;;;;1999.90;999.90;;;17.40;99.90;;;;;;5035490;28;20973;-75
2023/09/03 02:36:09;;;;;;;1999.90;999.90;;;17.40;99.90;;;;;;5024281;28;20437;-72
2023/09/03 02:38:35;;;;;;;1999.90;999.90;;;17.40;99.90;;;;;;5033586;28;20911;-70
2023/09/03 02:41:02;;;;;;;1999.90;999.90;;;17.30;99.90;;;;;;5035233;28;20429;-76
2023/09/03 02:43:29;;;;;;;1999.90;999.90;;;17.20;99.90;;;;;;5040305;28;20427;-73
2023/09/03 02:45:55;;;;;;;1999.90;999.90;;;17.10;99.90;;;;;;5033085;28;20841;-71
2023/09/03 02:48:22;;;;;;;1999.90;999.90;;;17.10;99.90;;;;;;5031921;28;20435;-73
2023/09/03 02:50:49;;;;;;;1999.90;999.90;;;17.00;99.90;;;;;;5036343;28;20482;-74
2023/09/03 02:53:17;;;;;;;1999.90;999.90;;;17.00;99.90;;;;;;5028979;28;20466;-73
2023/09/03 02:55:43;;;;;;;1999.90;999.90;;;17.20;99.90;;;;;;5032687;28;20440;-74
2023/09/03 02:58:10;;;;;;;1999.90;999.90;;;17.30;99.90;;;;;;5013317;28;20440;-75
2023/09/03 03:00:37;;;;;;;1999.90;999.90;;;16.90;99.90;;;;;;5032030;28;20451;-73
2023/09/03 03:03:04;;;;;;;1999.90;999.90;;;16.90;99.90;;;;;;5030283;28;20830;-74
2023/09/03 03:05:30;;;;;;;1999.90;999.90;;;16.90;99.90;;;;;;5025303;28;20455;-71
2023/09/03 03:07:59;;;;;;;1999.90;999.90;;;16.90;99.90;;;;;;5034343;28;20458;-74
2023/09/03 03:10:27;;;;;;;1999.90;999.90;;;16.90;99.90;;;;;;5036359;28;20435;-74
2023/09/03 03:12:53;;;;;;;1999.90;999.90;;;16.80;99.90;;;;;;5022154;28;20522;-74
2023/09/03 03:15:20;;;;;;;1999.90;999.90;;;16.80;99.90;;;;;;5028419;28;20434;-70
2023/09/03 03:17:47;;;;;;;1999.90;999.90;;;16.80;99.90;;;;;;5034337;28;20430;-73
2023/09/03 03:20:13;;;;;;;1999.90;999.90;;;16.80;99.90;;;;;;5040752;28;20491;-74
2023/09/03 03:22:40;;;;;;;1999.90;999.90;;;16.70;99.90;;;;;;5021538;28;20442;-74
2023/09/03 03:25:07;;;;;;;1999.90;999.90;;;16.70;99.90;;;;;;5030966;28;20945;-74
2023/09/03 03:27:37;;;;;;;1999.90;999.90;;;16.80;99.90;;;;;;5036611;28;20462;-74
2023/09/03 03:30:05;;;;;;;1999.90;999.90;;;16.70;99.90;;;;;;5036527;28;20429;-74
2023/09/03 03:32:32;;;;;;;1999.90;999.90;;;16.70;99.90;;;;;;5030629;28;20479;-74
2023/09/03 03:34:58;;;;;;;1999.90;999.90;;;16.60;99.90;;;;;;5021049;28;20443;-72
2023/09/03 03:37:25;;;;;;;1999.90;999.90;;;16.60;99.90;;;;;;5034717;28;20566;-72
2023/09/03 03:39:52;;;;;;;1999.90;999.90;;;16.50;99.90;;;;;;5038653;28;20452;-72
2023/09/03 03:42:18;;;;;;;1999.90;999.90;;;16.50;99.90;;;;;;5040274;28;20920;-73
2023/09/03 03:44:47;;;;;;;1999.90;999.90;;;16.40;99.90;;;;;;5034629;28;20927;-70
2023/09/03 03:47:13;;;;;;;1999.90;999.90;;;16.30;99.90;;;;;;5025611;28;20442;-72
2023/09/03 03:49:40;;;;;;;1999.90;999.90;;;16.40;99.90;;;;;;5030809;28;20433;-72
2023/09/03 03:52:07;;;;;;;1999.90;999.90;;;16.50;99.90;;;;;;5036926;28;20439;-70
2023/09/03 03:54:34;;;;;;;1999.90;999.90;;;16.60;99.90;;;;;;5031290;28;20441;-72
2023/09/03 03:57:00;;;;;;;1999.90;999.90;;;16.60;99.90;;;;;;5045866;28;20476;-69
2023/09/03 03:59:28;;;;;;;1999.90;999.90;;;16.60;99.90;;;;;;5022107;28;20446;-73
2023/09/03 04:01:57;;;;;;;1999.90;999.90;;;16.50;99.90;;;;;;5027827;28;22459;-71
2023/09/03 04:04:23;;;;;;;1999.90;999.90;;;16.40;99.90;;;;;;5027737;28;20879;-72
2023/09/03 04:06:50;;;;;;;1999.90;999.90;;;16.40;99.90;;;;;;5042402;28;20432;-71
2023/09/03 04:09:17;;;;;;;1999.90;999.90;;;16.30;99.90;;;;;;5043658;28;20437;-71
2023/09/03 04:11:43;;;;;;;1999.90;999.90;;;16.30;99.90;;;;;;5023272;28;20429;-71
2023/09/03 04:14:10;;;;;;;1999.90;999.90;;;16.30;99.90;;;;;;5031460;28;20776;-71
2023/09/03 04:16:36;;;;;;;1999.90;999.90;;;16.30;99.90;;;;;;5033324;28;20464;-71
2023/09/03 04:19:04;;;;;;;1999.90;999.90;;;16.40;99.90;;;;;;5041255;28;20943;-73
2023/09/03 04:21:31;;;;;;;1999.90;999.90;;;16.50;99.90;;;;;;5018396;28;20439;-71
2023/09/03 04:23:57;;;;;;;1999.90;999.90;;;16.50;99.90;;;;;;5022043;28;20431;-72
2023/09/03 04:26:24;;;;;;;1999.90;999.90;;;16.60;99.90;;;;;;5032893;28;20430;-70
2023/09/03 04:28:51;;;;;;;1999.90;999.90;;;16.60;99.90;;;;;;5040171;28;20467;-72
2023/09/03 04:31:17;;;;;;;1999.90;999.90;;;16.60;99.90;;;;;;5037174;28;20433;-71
2023/09/03 04:33:44;;;;;;;1999.90;999.90;;;16.60;99.90;;;;;;5034312;28;20432;-71
2023/09/03 04:36:12;;;;;;;1999.90;999.90;;;16.60;99.90;;;;;;5028644;28;20441;-67
2023/09/03 04:38:39;;;;;;;1999.90;999.90;;;16.60;99.90;;;;;;5037785;28;20433;-71
2023/09/03 04:41:06;;;;;;;1999.90;999.90;;;16.60;99.90;;;;;;5037706;28;20812;-72
2023/09/03 04:43:33;;;;;;;1999.90;999.90;;;16.40;99.90;;;;;;5038742;28;20948;-69
2023/09/03 04:46:00;;;;;;;1999.90;999.90;;;16.30;99.90;;;;;;5031643;28;20463;-70
2023/09/03 04:48:27;;;;;;;1999.90;999.90;;;16.30;99.90;;;;;;5024481;28;20518;-71
2023/09/03 04:50:54;;;;;;;1999.90;999.90;;;16.30;99.90;;;;;;5032368;28;20952;-67
2023/09/03 04:53:22;;;;;;;1999.90;999.90;;;16.40;99.90;;;;;;5035091;28;20432;-71
2023/09/03 04:55:48;;;;;;;1999.90;999.90;;;16.30;99.90;;;;;;5036406;28;20432;-72
2023/09/03 04:58:15;;;;;;;1999.90;999.90;;;16.40;99.90;;;;;;5033410;28;20914;-69
2023/09/03 05:00:42;;;;;;;1999.90;999.90;;;16.40;99.90;;;;;;5031026;28;20802;-69
2023/09/03 05:03:08;;;;;;;1999.90;999.90;;;16.50;99.90;;;;;;5026798;28;20433;-74
2023/09/03 05:05:41;;;;;;;1999.90;999.90;;;16.50;99.90;;;;;;5036086;28;20430;-68
2023/09/03 05:08:08;;;;;;;1999.90;999.90;;;16.50;99.90;;;;;;5041492;28;20804;-71
2023/09/03 05:10:36;;;;;;;1999.90;999.90;;;16.60;99.90;;;;;;5045138;28;22012;-71
2023/09/03 05:13:04;;;;;;;1999.90;999.90;;;16.60;99.90;;;;;;5025896;28;20426;-71
2023/09/03 05:15:30;;;;;;;1999.90;999.90;;;16.60;99.90;;;;;;5034480;28;20459;-70
2023/09/03 05:17:57;;;;;;;1999.90;999.90;;;16.60;99.90;;;;;;5039634;28;20800;-71
2023/09/03 05:20:23;;;;;;;1999.90;999.90;;;16.80;99.90;;;;;;5040744;28;20846;-71
2023/09/03 05:22:50;;;;;;;1999.90;999.90;;;16.70;99.90;;;;;;5032048;28;20985;-71
2023/09/03 05:25:17;;;;;;;1999.90;999.90;;;16.80;99.90;;;;;;5028222;28;20438;-71
2023/09/03 05:27:45;;;;;;;1999.90;999.90;;;16.40;99.90;;;;;;5037246;28;20433;-73
2023/09/03 05:30:12;;;;;;;1999.90;999.90;;;16.40;99.90;;;;;;5034066;28;20433;-71
2023/09/03 05:32:39;;;;;;;1999.90;999.90;;;16.30;99.90;;;;;;5023884;28;20434;-71
2023/09/03 05:35:06;;;;;;;1999.90;999.90;;;16.30;99.90;;;;;;5043336;28;20423;-71
2023/09/03 05:37:33;;;;;;;1999.90;999.90;;;16.30;99.90;;;;;;5029259;28;21949;-71
2023/09/03 05:40:00;;;;;;;1999.90;999.90;;;16.40;99.90;;;;;;5036135;28;20434;-69
2023/09/03 05:42:26;;;;;;;1999.90;999.90;;;16.30;99.90;;;;;;5037150;28;20504;-73
2023/09/03 05:44:55;;;;;;;1999.90;999.90;;;16.40;99.90;;;;;;5034863;28;20435;-72
2023/09/03 05:47:21;;;;;;;1999.90;999.90;;;16.70;99.90;;;;;;5028026;28;20460;-71
2023/09/03 05:49:48;;;;;;;1999.90;999.90;;;16.80;99.90;;;;;;5033469;28;20459;-68
2023/09/03 05:52:15;;;;;;;1999.90;999.90;;;16.80;99.90;;;;;;5031720;28;20457;-71
2023/09/03 05:54:41;;;;;;;1999.90;999.90;;;16.80;99.90;;;;;;5037966;28;20475;-71
2023/09/03 05:57:08;;;;;;;1999.90;999.90;;;16.80;99.90;;;;;;5030617;28;20491;-73
2023/09/03 05:59:35;;;;;;;1999.90;999.90;;;16.80;99.90;;;;;;5038181;28;20530;-71
2023/09/03 06:02:03;;;;;;;1999.90;999.90;;;16.70;99.90;;;;;;5028327;28;20974;-71
2023/09/03 06:04:29;;;;;;;1999.90;999.90;;;16.70;99.90;;;;;;5031770;28;20457;-69
2023/09/03 06:06:56;;;;;;;1999.90;999.90;;;16.60;99.90;;;;;;5030130;28;20952;-71
2023/09/03 06:09:23;;;;;;;1999.90;999.90;;;16.50;99.90;;;;;;5018028;28;20432;-73
2023/09/03 06:11:50;;;;;;;1999.90;999.90;;;16.60;99.90;;;;;;5018171;28;20431;-74
2023/09/03 06:14:16;;;;;;;1999.90;999.90;;;16.60;99.90;;;;;;5018382;28;20429;-73
2023/09/03 06:16:43;;;;;;;1999.90;999.90;;;16.50;99.90;;;;;;5019336;28;20526;-75
2023/09/03 06:19:11;;;;;;;1999.90;999.90;;;16.50;99.90;;;;;;5019300;28;20438;-74
2023/09/03 06:21:38;;;;;;;1999.90;999.90;;;16.50;99.90;;;;;;5018550;28;20436;-74
2023/09/03 06:24:05;;;;;;;1999.90;999.90;;;16.60;99.90;;;;;;5022422;28;20466;-72
2023/09/03 06:26:32;;;;;;;1999.90;999.90;;;16.70;99.90;;;;;;5032336;28;20431;-73
2023/09/03 06:28:59;;;;;;;1999.90;999.90;;;16.80;99.90;;;;;;5028389;28;20430;-72
2023/09/03 06:31:26;;;;;;;1999.90;999.90;;;16.90;99.90;;;;;;5024283;28;20977;-72
2023/09/03 06:33:54;;;;;;;1999.90;999.90;;;16.90;99.90;;;;;;5026124;28;20435;-72
2023/09/03 06:36:22;;;;;;;1999.90;999.90;;;16.90;99.90;;;;;;5023569;28;20440;-74
2023/09/03 06:38:49;;;;;;;1999.90;999.90;;;16.90;99.90;;;;;;5024246;28;20430;-73
2023/09/03 06:41:15;;;;;;;1999.90;999.90;;;17.00;99.90;;;;;;5023740;28;20484;-75
2023/09/03 06:43:42;;;;;;;1999.90;999.90;;;17.00;99.90;;;;;;5027413;28;20429;-73
2023/09/03 06:46:09;;;;;;;1999.90;999.90;;;17.00;99.90;;;;;;5022732;28;20509;-72
2023/09/03 06:48:36;;;;;;;1999.90;999.90;;;17.00;99.90;;;;;;5022938;28;20439;-73
2023/09/03 06:51:04;;;;;;;1999.90;999.90;;;17.00;99.90;;;;;;5028497;28;20431;-69
2023/09/03 06:53:32;;;;;;;1999.90;999.90;;;17.00;99.90;;;;;;5028630;28;20430;-73
2023/09/03 06:55:59;;;;;;;1999.90;999.90;;;17.10;99.90;;;;;;5029100;28;20939;-74
2023/09/03 06:58:25;;;;;;;1999.90;999.90;;;17.10;99.90;;;;;;5032660;28;20434;-74
2023/09/03 07:00:52;;;;;;;1999.90;999.90;;;17.30;99.90;;;;;;5039895;28;20438;-72
2023/09/03 07:03:19;;;;;;;1999.90;999.90;;;17.10;99.90;;;;;;5028270;28;20435;-75
2023/09/03 07:05:45;;;;;;;1999.90;999.90;;;17.10;99.90;;;;;;5034507;28;20440;-74
2023/09/03 07:08:12;;;;;;;1999.90;999.90;;;17.10;99.90;;;;;;5032654;28;20430;-74
2023/09/03 07:10:40;;;;;;;1999.90;999.90;;;17.20;99.90;;;;;;5034078;28;20431;-72
2023/09/03 07:13:07;;;;;;;1999.90;999.90;;;17.30;99.90;;;;;;5035203;28;20439;-74
2023/09/03 07:15:36;;;;;;;1999.90;999.90;;;17.50;99.90;;;;;;5036117;28;20431;-74
2023/09/03 07:18:03;;;;;;;1999.90;999.90;;;17.70;99.90;;;;;;5031197;28;20530;-74
2023/09/03 07:20:30;;;;;;;1999.90;999.90;;;17.80;99.90;;;;;;5032985;28;20435;-73
2023/09/03 07:22:57;;;;;;;1999.90;999.90;;;17.90;99.90;;;;;;5025911;28;20440;-73
2023/09/03 07:25:24;;;;;;;1999.90;999.90;;;18.00;99.90;;;;;;5032881;28;20432;-74
2023/09/03 07:27:52;;;;;;;1999.90;999.90;;;18.10;99.90;;;;;;5025303;28;20442;-73
2023/09/03 07:30:19;;;;;;;1999.90;999.90;;;18.20;99.90;;;;;;5022705;28;20435;-74
2023/09/03 07:32:46;;;;;;;1999.90;999.90;;;18.20;99.90;;;;;;5030552;28;20433;-73
2023/09/03 07:35:13;;;;;;;1999.90;999.90;;;18.00;99.90;;;;;;5029290;28;20508;-74
2023/09/03 07:37:42;;;;;;;1999.90;999.90;;;18.20;99.90;;;;;;5047722;28;20413;-73
2023/09/03 07:40:10;;;;;;;1999.90;999.90;;;18.20;99.90;;;;;;5046116;28;20445;-74
2023/09/03 07:42:37;;;;;;;1999.90;999.90;;;18.20;99.90;;;;;;5049050;28;20417;-74
2023/09/03 07:45:06;;;;;;;1999.90;999.90;;;18.10;99.90;;;;;;5049449;28;20425;-73
2023/09/03 07:47:33;;;;;;;1999.90;999.90;;;18.10;99.90;;;;;;5041416;28;20916;-74
2023/09/03 07:50:01;;;;;;;1999.90;999.90;;;18.20;99.90;;;;;;5046248;28;20436;-73
2023/09/03 07:52:27;;;;;;;1999.90;999.90;;;18.30;99.90;;;;;;5046063;28;20805;-74
2023/09/03 07:54:54;;;;;;;1999.90;999.90;;;18.30;99.90;;;;;;5050251;28;20788;-71
2023/09/03 07:57:21;;;;;;;1999.90;999.90;;;18.40;99.90;;;;;;5049564;28;20425;-73
2023/09/03 07:59:47;;;;;;;1999.90;999.90;;;18.60;99.90;;;;;;5046868;28;20437;-72
2023/09/03 08:02:15;;;;;;;1999.90;999.90;;;18.40;99.90;;;;;;5050045;28;20511;-71
2023/09/03 08:04:43;;;;;;;1999.90;999.90;;;18.50;99.90;;;;;;5050538;28;20800;-76
2023/09/03 08:07:10;;;;;;;1999.90;999.90;;;18.70;99.90;;;;;;5050295;28;20417;-74
2023/09/03 08:09:36;;;;;;;1999.90;999.90;;;18.70;99.90;;;;;;5047225;28;20498;-76
2023/09/03 08:12:03;;;;;;;1999.90;999.90;;;18.60;99.90;;;;;;5049955;28;20915;-76
2023/09/03 08:14:30;;;;;;;1999.90;999.90;;;18.80;99.90;;;;;;5050175;28;20413;-75
2023/09/03 08:16:57;;;;;;;1999.90;999.90;;;18.70;99.90;;;;;;5050238;28;20421;-76
2023/09/03 08:19:25;;;;;;;1999.90;999.90;;;18.80;99.90;;;;;;5092065;22;20447;-75
2023/09/03 08:21:52;;;;;;;1999.90;999.90;;;18.80;99.90;;;;;;4987149;28;20475;-77
2023/09/03 08:24:18;;;;;;;1999.90;999.90;;;18.80;99.90;;;;;;4990487;28;20795;-76
2023/09/03 08:26:45;;;;;;;1999.90;999.90;;;19.00;99.90;;;;;;5003877;28;20422;-77
2023/09/03 08:29:13;;;;;;;1999.90;999.90;;;19.20;99.90;;;;;;4994771;28;20559;-78
2023/09/03 08:31:39;;;;;;;1999.90;999.90;;;19.10;99.90;;;;;;4980579;28;20442;-78
2023/09/03 08:34:06;;;;;;;1999.90;999.90;;;18.80;99.90;;;;;;4987677;28;20433;-76
2023/09/03 08:36:34;;;;;;;1999.90;999.90;;;18.70;99.90;;;;;;4988859;28;20438;-77
2023/09/03 08:39:02;;;;;;;1999.90;999.90;;;18.70;99.90;;;;;;4998341;28;20428;-72
2023/09/03 08:41:31;;;;;;;1999.90;999.90;;;18.90;99.90;;;;;;4987895;28;20434;-75
2023/09/03 08:44:03;;;;;;;1999.90;999.90;;;19.20;99.90;;;;;;4990299;28;20473;-73
2023/09/03 08:46:31;;;;;;;1999.90;999.90;;;19.70;99.90;;;;;;4981352;28;20427;-72
2023/09/03 08:49:00;;;;;;;1999.90;999.90;;;20.20;99.90;;;;;;4993228;28;20892;-78
2023/09/03 08:51:27;;;;;;;1999.90;999.90;;;20.80;99.90;;;;;;4988525;28;20448;-75
2023/09/03 08:53:57;;;;;;;1999.90;999.90;;;20.70;99.90;;;;;;4988092;28;20439;-77
2023/09/03 08:56:23;;;;;;;1999.90;999.90;;;20.50;99.90;;;;;;4993465;28;20492;-77
2023/09/03 08:58:50;;;;;;;1999.90;999.90;;;20.40;99.90;;;;;;4992724;28;20424;-77
2023/09/03 09:01:18;;;;;;;1999.90;999.90;;;20.50;99.90;;;;;;4978055;28;20821;-77
2023/09/03 09:03:46;;;;;;;1999.90;999.90;;;20.00;99.90;;;;;;5005390;28;20420;-76
2023/09/03 09:06:13;;;;;;;1999.90;999.90;;;20.00;99.90;;;;;;4990495;28;20445;-76
2023/09/03 09:08:41;;;;;;;1999.90;999.90;;;20.00;99.90;;;;;;4991713;28;20426;-77
2023/09/03 09:11:18;;;;;;;1999.90;999.90;;;20.40;99.90;;;;;;4979199;28;20784;-76
2023/09/03 09:13:55;;;;;;;1999.90;999.90;;;20.40;99.90;;;;;;4988020;28;20434;-75
2023/09/03 09:16:22;;;;;;;1999.90;999.90;;;20.90;99.90;;;;;;4986979;28;20420;-77
2023/09/03 09:18:48;;;;;;;1999.90;999.90;;;21.10;99.90;;;;;;4987396;28;20449;-75
2023/09/03 09:21:17;;;;;;;1999.90;999.90;;;21.50;99.90;;;;;;4994023;28;20418;-77
2023/09/03 09:23:44;;;;;;;1999.90;999.90;;;21.60;99.90;;;;;;4985582;28;20422;-75
2023/09/03 09:26:19;;;;;;;1999.90;999.90;;;21.40;99.90;;;;;;4990830;28;20441;-73
2023/09/03 09:28:58;;;;;;;1999.90;999.90;;;20.90;99.90;;;;;;4994446;28;20506;-77
2023/09/03 09:31:30;;;;;;;1999.90;999.90;;;20.50;99.90;;;;;;4994779;28;20418;-76
2023/09/03 09:33:57;;;;;;;1999.90;999.90;;;20.60;99.90;;;;;;4993762;28;20841;-78
2023/09/03 09:36:24;;;;;;;1999.90;999.90;;;20.80;99.90;;;;;;4992398;28;21143;-78
2023/09/03 09:38:51;;;;;;;1999.90;999.90;;;20.90;99.90;;;;;;4993938;28;20425;-78
2023/09/03 09:41:24;;;;;;;1999.90;999.90;;;21.00;99.90;;;;;;4991056;28;20434;-78
2023/09/03 09:43:52;;;;;;;1999.90;999.90;;;21.20;99.90;;;;;;4993236;28;20425;-74
2023/09/03 09:46:29;;;;;;;1999.90;999.90;;;20.50;99.90;;;;;;4992610;28;20434;-77
2023/09/03 09:48:57;;;;;;;1999.90;999.90;;;20.60;99.90;;;;;;4980582;28;20953;-77
2023/09/03 09:51:24;;;;;;;1999.90;999.90;;;20.50;99.90;;;;;;4980839;28;20460;-77
2023/09/03 09:53:58;;;;;;;1999.90;999.90;;;20.40;99.90;;;;;;4990195;28;20442;-75
2023/09/03 09:56:29;;;;;;;1999.90;999.90;;;20.50;99.90;;;;;;4991817;28;20825;-78
2023/09/03 09:58:58;;;;;;;1999.90;999.90;;;20.60;99.90;;;;;;4990981;28;21121;-76
2023/09/03 10:01:26;;;;;;;1999.90;999.90;;;20.60;99.90;;;;;;4992773;28;20449;-77
2023/09/03 10:03:53;;;;;;;1999.90;999.90;;;20.50;99.90;;;;;;4991976;28;20525;-80
2023/09/03 10:06:20;;;;;;;1999.90;999.90;;;20.70;99.90;;;;;;4998360;28;20442;-82
2023/09/03 10:08:49;;;;;;;1999.90;999.90;;;21.00;99.90;;;;;;4995073;28;20419;-76
2023/09/03 10:11:16;;;;;;;1999.90;999.90;;;21.10;99.90;;;;;;4994424;28;20419;-73
2023/09/03 10:13:45;;;;;;;1999.90;999.90;;;20.90;99.90;;;;;;4992041;28;20469;-75
2023/09/03 10:16:12;;;;;;;1999.90;999.90;;;21.00;99.90;;;;;;4992959;28;20418;-75
2023/09/03 10:18:44;;;;;;;1999.90;999.90;;;20.90;99.90;;;;;;4985569;28;20442;-76
2023/09/03 10:21:12;;;;;;;1999.90;999.90;;;20.80;99.90;;;;;;4984021;28;20434;-78
2023/09/03 10:23:44;;;;;;;1999.90;999.90;;;21.00;99.90;;;;;;4989772;28;20500;-75
2023/09/03 10:26:13;;;;;;;1999.90;999.90;;;21.20;99.90;;;;;;4983655;28;20434;-75
2023/09/03 10:28:43;;;;;;;1999.90;999.90;;;21.50;99.90;;;;;;4984819;28;20424;-74
2023/09/03 10:31:13;;;;;;;1999.90;999.90;;;21.50;99.90;;;;;;4985770;28;20451;-75
2023/09/03 10:33:41;;;;;;;1999.90;999.90;;;21.50;99.90;;;;;;4981304;28;20419;-77
2023/09/03 10:36:15;;;;;;;1999.90;999.90;;;21.70;99.90;;;;;;4983266;28;20437;-75
2023/09/03 10:38:42;;;;;;;1999.90;999.90;;;21.80;99.90;;;;;;4983881;28;20437;-75
2023/09/03 10:41:23;;;;;;;1999.90;999.90;;;21.60;99.90;;;;;;4979399;28;20479;-74
2023/09/03 10:43:51;;;;;;;1999.90;999.90;;;21.40;99.90;;;;;;4977244;28;20449;-76
2023/09/03 10:46:21;;;;;;;1999.90;999.90;;;21.30;99.90;;;;;;4981306;28;20439;-75
2023/09/03 10:48:52;;;;;;;1999.90;999.90;;;21.10;99.90;;;;;;4978480;28;20526;-76
2023/09/03 10:51:33;;;;;;;1999.90;999.90;;;21.20;99.90;;;;;;4986755;28;20476;-75
2023/09/03 10:54:16;;;;;;;1999.90;999.90;;;21.20;99.90;;;;;;4991584;28;20992;-74
2023/09/03 10:57:15;;;;;;;1999.90;999.90;;;21.40;99.90;;;;;;4983104;28;20906;-76
2023/09/03 11:00:10;;;;;;;1999.90;999.90;;;21.30;99.90;;;;;;4998923;28;20492;-75
2023/09/03 11:02:39;;;;;;;1999.90;999.90;;;21.20;99.90;;;;;;4978136;28;20964;-77
2023/09/03 11:05:20;;;;;;;1999.90;999.90;;;21.40;99.90;;;;;;4988098;28;20430;-75
2023/09/03 11:07:49;;;;;;;1999.90;999.90;;;22.00;99.90;;;;;;4991769;28;20469;-76
2023/09/03 11:10:40;;;;;;;1999.90;999.90;;;22.30;99.90;;;;;;4985663;28;20825;-79
2023/09/03 11:13:14;;;;;;;1999.90;999.90;;;22.30;99.90;;;;;;4998019;28;20534;-73
2023/09/03 11:15:49;;;;;;;1999.90;999.90;;;22.30;99.90;;;;;;5002621;28;20424;-78
2023/09/03 11:18:21;;;;;;;1999.90;999.90;;;22.10;99.90;;;;;;4979771;28;20893;-76
2023/09/03 11:20:48;;;;;;;1999.90;999.90;;;22.20;99.90;;;;;;4989783;28;20451;-76
2023/09/03 11:23:15;;;;;;;1999.90;999.90;;;22.10;99.90;;;;;;4987571;28;20534;-76
2023/09/03 11:25:42;;;;;;;1999.90;999.90;;;22.10;99.90;;;;;;4987712;28;20449;-73
2023/09/03 11:28:12;;;;;;;1999.90;999.90;;;22.00;99.90;;;;;;4988488;28;20534;-73
2023/09/03 11:30:39;;;;;;;1999.90;999.90;;;21.80;99.90;;;;;;4978615;28;20441;-76
2023/09/03 11:33:08;;;;;;;1999.90;999.90;;;21.70;99.90;;;;;;4989409;28;20438;-76
2023/09/03 11:35:47;;;;;;;1999.90;999.90;;;21.60;99.90;;;;;;4988822;28;20529;-76
2023/09/03 11:38:14;;;;;;;1999.90;999.90;;;21.70;99.90;;;;;;4991837;28;20921;-73
2023/09/03 11:40:41;;;;;;;1999.90;999.90;;;21.90;99.90;;;;;;4988330;28;20441;-74
2023/09/03 11:43:12;;;;;;;1999.90;999.90;;;21.90;99.90;;;;;;4981116;28;20438;-76
2023/09/03 11:45:39;;;;;;;1999.90;999.90;;;21.80;99.90;;;;;;4982129;28;20488;-76
2023/09/03 11:48:09;;;;;;;1999.90;999.90;;;21.50;99.90;;;;;;4979031;28;20445;-74
2023/09/03 11:50:36;;;;;;;1999.90;999.90;;;21.40;99.90;;;;;;4988324;28;20444;-77
2023/09/03 11:53:09;;;;;;;1999.90;999.90;;;21.40;99.90;;;;;;4980073;28;20440;-77
2023/09/03 11:55:38;;;;;;;1999.90;999.90;;;21.40;99.90;;;;;;4993992;28;20442;-77
2023/09/03 11:58:07;;;;;;;1999.90;999.90;;;21.40;99.90;;;;;;4978271;28;20438;-73
2023/09/03 12:00:34;;;;;;;1999.90;999.90;;;21.70;99.90;;;;;;4985279;28;20445;-83
2023/09/03 12:03:02;;;;;;;1999.90;999.90;;;21.70;99.90;;;;;;4984647;28;20443;-77
2023/09/03 12:05:29;;;;;;;1999.90;999.90;;;21.60;99.90;;;;;;4992785;28;20460;-77